Time;durP1;ratioP1;P1;durP2;ratioP2;P2;SDS_P1;SDS_P2;PMS_P1;PMS_P2;Temp;Humidity;BMP_temperature;BMP_pressure;BME280_temperature;BME280_humidity;BME280_pressure;Samples;Min_cycle;Max_cycle;Signal;HPM_P1;HPM_P2
2022/03/28 00:01:19;;;;;;;84.63;32.17;;;;;;;;;;5069838;28;20401;-50
2022/03/28 00:03:45;;;;;;;88.85;30.52;;;;;;;;;;5065124;28;20033;-48
2022/03/28 00:06:11;;;;;;;83.60;31.13;;;;;;;;;;5064733;28;20052;-48
2022/03/28 00:08:37;;;;;;;81.55;31.20;;;;;;;;;;5067437;28;20086;-48
2022/03/28 00:11:06;;;;;;;80.95;30.02;;;;;;;;;;5082516;28;20015;-48
2022/03/28 00:13:33;;;;;;;77.57;30.30;;;;;;;;;;5063552;28;20036;-49
2022/03/28 00:15:59;;;;;;;84.03;31.60;;;;;;;;;;5063288;28;20036;-49
2022/03/28 00:18:24;;;;;;;82.63;31.10;;;;;;;;;;5063187;28;20118;-49
2022/03/28 00:20:53;;;;;;;73.85;30.83;;;;;;;;;;5071658;28;20040;-48
2022/03/28 00:23:22;;;;;;;73.20;30.00;;;;;;;;;;5063539;28;20502;-49
2022/03/28 00:25:48;;;;;;;86.15;30.67;;;;;;;;;;5065366;28;20525;-48
2022/03/28 00:28:14;;;;;;;89.68;32.17;;;;;;;;;;5065766;28;20028;-48
2022/03/28 00:30:40;;;;;;;83.50;29.70;;;;;;;;;;5066156;28;20051;-49
2022/03/28 00:33:06;;;;;;;79.35;29.70;;;;;;;;;;5065923;28;20040;-49
2022/03/28 00:35:32;;;;;;;78.88;30.23;;;;;;;;;;5063721;28;20058;-48
2022/03/28 00:37:57;;;;;;;70.85;29.45;;;;;;;;;;5061432;28;20127;-49
2022/03/28 00:40:27;;;;;;;76.35;28.92;;;;;;;;;;5059994;28;20212;-49
2022/03/28 00:42:54;;;;;;;74.45;28.23;;;;;;;;;;5064139;28;20114;-48
2022/03/28 00:45:20;;;;;;;65.95;26.02;;;;;;;;;;5065085;28;20148;-49
2022/03/28 00:47:46;;;;;;;65.35;26.23;;;;;;;;;;5064343;28;20282;-48
2022/03/28 00:50:12;;;;;;;67.60;26.27;;;;;;;;;;5062002;28;20705;-49
2022/03/28 00:52:39;;;;;;;56.10;23.45;;;;;;;;;;5063186;28;20127;-49
2022/03/28 00:55:08;;;;;;;60.00;21.25;;;;;;;;;;5062455;28;20035;-49
2022/03/28 00:57:34;;;;;;;55.22;20.40;;;;;;;;;;5060590;28;20036;-49
2022/03/28 01:00:01;;;;;;;52.80;20.48;;;;;;;;;;5059783;28;20041;-48
2022/03/28 01:02:27;;;;;;;52.15;18.90;;;;;;;;;;5065924;28;20016;-49
2022/03/28 01:04:52;;;;;;;51.45;18.23;;;;;;;;;;5061970;28;20051;-49
2022/03/28 01:07:18;;;;;;;48.03;18.27;;;;;;;;;;5060814;28;20534;-48
2022/03/28 01:09:44;;;;;;;43.08;18.30;;;;;;;;;;5060492;28;20212;-49
2022/03/28 01:12:10;;;;;;;41.33;17.42;;;;;;;;;;5064775;28;20036;-49
2022/03/28 01:14:37;;;;;;;40.17;16.60;;;;;;;;;;5063996;28;20103;-49
2022/03/28 01:19:51;;;;;;;37.83;16.08;;;;;;;;;;5067002;28;20039;-48
2022/03/28 01:22:16;;;;;;;37.30;14.85;;;;;;;;;;5062320;28;20020;-49
2022/03/28 01:24:42;;;;;;;38.90;14.98;;;;;;;;;;5061429;28;20055;-48
2022/03/28 01:27:09;;;;;;;38.00;14.50;;;;;;;;;;5065290;28;20029;-48
2022/03/28 01:29:34;;;;;;;42.92;15.65;;;;;;;;;;5064435;28;20028;-48
2022/03/28 01:32:00;;;;;;;37.20;15.90;;;;;;;;;;5064840;28;20021;-48
2022/03/28 01:34:25;;;;;;;52.13;17.98;;;;;;;;;;5060866;28;20700;-48
2022/03/28 01:36:51;;;;;;;40.53;15.90;;;;;;;;;;5060944;28;20503;-49
2022/03/28 01:39:18;;;;;;;43.35;16.00;;;;;;;;;;5062311;28;20051;-49
2022/03/28 01:41:44;;;;;;;36.72;14.73;;;;;;;;;;5063346;28;20040;-49
2022/03/28 01:44:10;;;;;;;33.70;14.23;;;;;;;;;;5063133;28;20112;-49
2022/03/28 01:46:48;;;;;;;31.67;13.55;;;;;;;;;;5064284;28;20115;-48
2022/03/28 01:49:15;;;;;;;33.10;13.73;;;;;;;;;;5061763;28;22630;-48
2022/03/28 01:51:41;;;;;;;34.83;14.52;;;;;;;;;;5060808;28;20038;-49
2022/03/28 01:54:07;;;;;;;27.20;12.43;;;;;;;;;;5063281;28;20033;-49
2022/03/28 01:56:34;;;;;;;35.63;13.23;;;;;;;;;;5062087;28;20029;-48
2022/03/28 01:59:01;;;;;;;29.52;12.43;;;;;;;;;;5060559;28;20029;-49
2022/03/28 02:01:26;;;;;;;28.25;12.02;;;;;;;;;;5056272;28;20263;-48
2022/03/28 02:03:52;;;;;;;35.85;12.55;;;;;;;;;;5062321;28;20031;-48
2022/03/28 02:06:17;;;;;;;27.13;10.63;;;;;;;;;;5066036;28;20139;-48
2022/03/28 02:08:43;;;;;;;26.17;11.15;;;;;;;;;;5059648;28;20102;-48
2022/03/28 02:11:08;;;;;;;26.23;10.90;;;;;;;;;;5062592;28;20036;-49
2022/03/28 02:13:34;;;;;;;25.00;10.52;;;;;;;;;;5062441;28;20037;-48
2022/03/28 02:16:00;;;;;;;26.23;10.07;;;;;;;;;;5065687;28;20032;-49
2022/03/28 02:18:27;;;;;;;20.70;10.30;;;;;;;;;;5062423;28;20516;-49
2022/03/28 02:20:53;;;;;;;23.98;9.60;;;;;;;;;;5061569;28;20542;-48
2022/03/28 02:23:18;;;;;;;24.33;10.18;;;;;;;;;;5061920;28;20032;-48
2022/03/28 02:25:44;;;;;;;24.83;9.38;;;;;;;;;;5063554;28;20040;-48
2022/03/28 02:28:11;;;;;;;22.55;9.02;;;;;;;;;;5078215;28;20439;-48
2022/03/28 02:30:36;;;;;;;17.23;8.15;;;;;;;;;;5064106;28;20036;-48
2022/03/28 02:33:02;;;;;;;23.77;9.63;;;;;;;;;;5068006;28;20405;-48
2022/03/28 02:35:27;;;;;;;20.23;9.32;;;;;;;;;;5064793;28;20089;-48
2022/03/28 02:37:53;;;;;;;28.15;9.68;;;;;;;;;;5067827;28;20070;-48
2022/03/28 02:40:18;;;;;;;20.83;10.05;;;;;;;;;;5066680;28;20570;-48
2022/03/28 02:42:44;;;;;;;27.52;9.20;;;;;;;;;;5066175;28;20470;-48
2022/03/28 02:45:10;;;;;;;19.92;8.23;;;;;;;;;;5067604;28;20046;-48
2022/03/28 02:47:36;;;;;;;22.38;8.98;;;;;;;;;;5069688;28;20036;-49
2022/03/28 02:50:02;;;;;;;24.58;9.75;;;;;;;;;;5065903;28;20040;-49
2022/03/28 02:52:28;;;;;;;19.30;8.32;;;;;;;;;;5065289;28;20119;-49
2022/03/28 02:54:54;;;;;;;21.27;9.05;;;;;;;;;;5065962;28;20118;-49
2022/03/28 02:57:19;;;;;;;21.80;9.40;;;;;;;;;;5065677;28;20063;-48
2022/03/28 02:59:45;;;;;;;21.30;8.55;;;;;;;;;;5063399;28;20098;-48
2022/03/28 03:02:11;;;;;;;21.55;9.02;;;;;;;;;;5066305;28;20036;-49
2022/03/28 03:04:37;;;;;;;18.42;8.23;;;;;;;;;;5062997;28;20163;-49
2022/03/28 03:07:03;;;;;;;21.05;8.15;;;;;;;;;;5065814;28;20410;-49
2022/03/28 03:09:29;;;;;;;18.73;7.75;;;;;;;;;;5065384;28;20154;-48
2022/03/28 03:11:55;;;;;;;18.13;7.63;;;;;;;;;;5064659;28;20459;-48
2022/03/28 03:14:20;;;;;;;20.05;8.88;;;;;;;;;;5064718;28;20172;-48
2022/03/28 03:16:46;;;;;;;19.77;8.30;;;;;;;;;;5067450;28;20037;-48
2022/03/28 03:19:11;;;;;;;16.88;7.60;;;;;;;;;;5066531;28;20406;-48
2022/03/28 03:21:37;;;;;;;19.40;8.48;;;;;;;;;;5064898;28;20036;-48
2022/03/28 03:24:05;;;;;;;21.55;7.97;;;;;;;;;;5064987;28;20051;-49
2022/03/28 03:26:31;;;;;;;20.85;8.27;;;;;;;;;;5071624;28;20277;-48
2022/03/28 03:28:58;;;;;;;22.63;8.30;;;;;;;;;;5065978;28;20254;-49
2022/03/28 03:31:24;;;;;;;17.70;7.00;;;;;;;;;;5062584;28;20032;-48
2022/03/28 03:33:50;;;;;;;18.58;6.85;;;;;;;;;;5067155;28;20043;-48
2022/03/28 03:36:15;;;;;;;17.00;6.53;;;;;;;;;;5062709;28;20028;-48
2022/03/28 03:38:41;;;;;;;17.50;7.75;;;;;;;;;;5063506;28;20477;-49
2022/03/28 03:41:07;;;;;;;18.23;6.75;;;;;;;;;;5067999;28;20105;-48
2022/03/28 03:43:33;;;;;;;24.25;8.60;;;;;;;;;;5067405;28;20028;-48
2022/03/28 03:45:58;;;;;;;20.33;7.35;;;;;;;;;;5067212;28;20040;-48
2022/03/28 03:48:26;;;;;;;18.92;8.10;;;;;;;;;;5068207;28;20533;-49
2022/03/28 03:50:51;;;;;;;18.05;7.28;;;;;;;;;;5064664;28;20032;-48
2022/03/28 03:53:19;;;;;;;19.60;7.60;;;;;;;;;;5066781;28;20155;-48
2022/03/28 03:55:45;;;;;;;20.30;6.90;;;;;;;;;;5065819;28;20040;-48
2022/03/28 03:58:11;;;;;;;21.92;7.53;;;;;;;;;;5066135;28;20111;-49
2022/03/28 04:00:36;;;;;;;21.60;7.75;;;;;;;;;;5063986;28;20032;-48
2022/03/28 04:03:02;;;;;;;17.80;7.57;;;;;;;;;;5064933;28;20032;-48
2022/03/28 04:05:28;;;;;;;17.75;8.18;;;;;;;;;;5063937;28;20052;-48
2022/03/28 04:07:54;;;;;;;21.88;7.80;;;;;;;;;;5061152;28;20028;-48
2022/03/28 04:10:22;;;;;;;24.98;7.70;;;;;;;;;;5063888;28;20133;-48
2022/03/28 04:12:47;;;;;;;17.45;7.00;;;;;;;;;;5062330;28;20105;-48
2022/03/28 04:15:13;;;;;;;19.95;7.25;;;;;;;;;;5062467;28;20478;-49
2022/03/28 04:17:43;;;;;;;18.65;7.55;;;;;;;;;;5061570;28;20043;-48
2022/03/28 04:20:10;;;;;;;20.83;8.20;;;;;;;;;;5063618;28;20028;-48
2022/03/28 04:22:36;;;;;;;19.13;8.23;;;;;;;;;;5064932;28;20020;-49
2022/03/28 04:25:03;;;;;;;18.65;8.90;;;;;;;;;;5063421;28;20028;-48
2022/03/28 04:27:28;;;;;;;16.77;7.18;;;;;;;;;;5062678;28;20085;-48
2022/03/28 04:29:54;;;;;;;22.00;9.35;;;;;;;;;;5061926;28;20372;-49
2022/03/28 04:32:19;;;;;;;22.55;8.57;;;;;;;;;;5064839;28;20040;-49
2022/03/28 04:34:45;;;;;;;20.52;8.07;;;;;;;;;;5063509;28;20609;-48
2022/03/28 04:37:10;;;;;;;21.95;8.27;;;;;;;;;;5067671;28;20060;-48
2022/03/28 04:39:36;;;;;;;16.60;7.65;;;;;;;;;;5059613;28;20464;-48
2022/03/28 04:42:01;;;;;;;23.00;8.52;;;;;;;;;;5067171;28;20036;-48
2022/03/28 04:44:27;;;;;;;22.67;9.15;;;;;;;;;;5065705;28;21150;-49
2022/03/28 04:46:52;;;;;;;21.48;9.25;;;;;;;;;;5062570;28;20036;-48
2022/03/28 04:49:18;;;;;;;21.42;8.80;;;;;;;;;;5064043;28;20048;-49
2022/03/28 04:51:43;;;;;;;25.33;9.00;;;;;;;;;;5059804;28;20042;-48
2022/03/28 04:54:09;;;;;;;20.80;8.70;;;;;;;;;;5061982;28;20058;-48
2022/03/28 04:56:34;;;;;;;22.33;8.95;;;;;;;;;;5065084;28;20048;-48
2022/03/28 04:59:02;;;;;;;25.60;9.48;;;;;;;;;;5062953;28;20487;-48
2022/03/28 05:01:28;;;;;;;24.45;9.93;;;;;;;;;;5063045;28;20067;-48
2022/03/28 05:03:53;;;;;;;29.42;9.23;;;;;;;;;;5063465;28;20024;-48
2022/03/28 05:06:19;;;;;;;25.45;9.02;;;;;;;;;;5064900;28;20071;-48
2022/03/28 05:08:44;;;;;;;24.85;9.27;;;;;;;;;;5063781;28;20079;-48
2022/03/28 05:11:10;;;;;;;23.58;7.93;;;;;;;;;;5057272;28;20441;-48
2022/03/28 05:13:35;;;;;;;24.88;8.57;;;;;;;;;;5064137;28;20029;-48
2022/03/28 05:16:00;;;;;;;24.63;9.52;;;;;;;;;;5063453;28;20040;-48
2022/03/28 05:18:26;;;;;;;19.80;7.63;;;;;;;;;;5061302;28;20036;-49
2022/03/28 05:20:52;;;;;;;22.65;7.57;;;;;;;;;;5060197;28;20059;-48
2022/03/28 05:23:17;;;;;;;23.73;8.90;;;;;;;;;;5063366;28;20060;-48
2022/03/28 05:25:43;;;;;;;24.17;8.68;;;;;;;;;;5065003;28;20453;-49
2022/03/28 05:28:09;;;;;;;20.60;8.32;;;;;;;;;;5063496;28;20036;-48
2022/03/28 05:30:35;;;;;;;18.92;7.00;;;;;;;;;;5063071;28;20028;-48
2022/03/28 05:33:01;;;;;;;20.70;8.43;;;;;;;;;;5059257;28;20040;-49
2022/03/28 05:35:27;;;;;;;22.00;8.35;;;;;;;;;;5064183;28;20028;-48
2022/03/28 05:37:53;;;;;;;19.48;8.13;;;;;;;;;;5060835;28;20032;-48
2022/03/28 05:40:19;;;;;;;22.75;7.72;;;;;;;;;;5064947;28;20047;-48
2022/03/28 05:42:45;;;;;;;24.35;8.75;;;;;;;;;;5059081;28;20021;-49
2022/03/28 05:45:11;;;;;;;31.67;12.30;;;;;;;;;;5063287;28;20032;-48
2022/03/28 05:47:37;;;;;;;23.30;9.60;;;;;;;;;;5064359;28;20027;-48
2022/03/28 05:50:03;;;;;;;20.92;8.93;;;;;;;;;;5059407;28;20414;-48
2022/03/28 05:52:29;;;;;;;20.52;9.30;;;;;;;;;;5060018;28;20547;-49
2022/03/28 05:54:54;;;;;;;25.85;10.73;;;;;;;;;;5063316;28;20036;-48
2022/03/28 05:57:20;;;;;;;27.90;11.57;;;;;;;;;;5062591;28;20128;-48
2022/03/28 05:59:45;;;;;;;29.90;14.57;;;;;;;;;;5064525;28;20413;-49
2022/03/28 06:02:11;;;;;;;46.88;17.88;;;;;;;;;;5062726;28;20456;-49
2022/03/28 06:04:36;;;;;;;58.88;21.83;;;;;;;;;;5063477;28;20033;-49
2022/03/28 06:07:02;;;;;;;68.55;26.15;;;;;;;;;;5067357;28;20057;-49
2022/03/28 06:09:27;;;;;;;80.13;27.55;;;;;;;;;;5067984;28;20044;-48
2022/03/28 06:11:53;;;;;;;75.13;25.00;;;;;;;;;;5067385;28;20498;-49
2022/03/28 06:14:18;;;;;;;73.40;25.50;;;;;;;;;;5067693;28;20036;-48
2022/03/28 06:16:44;;;;;;;76.68;24.98;;;;;;;;;;5072651;28;20046;-48
2022/03/28 06:19:09;;;;;;;62.13;23.13;;;;;;;;;;5069484;28;20040;-48
2022/03/28 06:21:35;;;;;;;64.88;25.20;;;;;;;;;;5069091;28;20106;-48
2022/03/28 06:24:00;;;;;;;62.35;24.48;;;;;;;;;;5068174;28;20498;-48
2022/03/28 06:26:26;;;;;;;75.10;26.23;;;;;;;;;;5069706;28;20059;-48
2022/03/28 06:28:52;;;;;;;69.85;25.60;;;;;;;;;;5067670;28;20387;-48
2022/03/28 06:31:17;;;;;;;79.82;27.50;;;;;;;;;;5067629;28;20025;-48
2022/03/28 06:33:43;;;;;;;69.65;26.17;;;;;;;;;;5068846;28;20031;-48
2022/03/28 06:36:09;;;;;;;66.95;26.17;;;;;;;;;;5067084;28;20033;-48
2022/03/28 06:38:35;;;;;;;67.72;25.30;;;;;;;;;;5066871;28;20035;-48
2022/03/28 06:41:01;;;;;;;81.03;27.17;;;;;;;;;;5068877;28;20036;-48
2022/03/28 06:43:27;;;;;;;78.53;28.88;;;;;;;;;;5062022;28;20020;-48
2022/03/28 06:45:52;;;;;;;75.50;28.08;;;;;;;;;;5063815;28;20029;-49
2022/03/28 06:48:21;;;;;;;80.35;29.52;;;;;;;;;;5059792;28;20040;-49
2022/03/28 06:50:46;;;;;;;72.55;26.83;;;;;;;;;;5064689;28;20443;-48
2022/03/28 06:53:12;;;;;;;63.63;25.48;;;;;;;;;;5068761;28;20024;-49
2022/03/28 06:55:38;;;;;;;68.20;25.58;;;;;;;;;;5067502;28;20047;-50
2022/03/28 06:58:04;;;;;;;80.20;26.85;;;;;;;;;;5067720;28;20048;-49
2022/03/28 07:00:29;;;;;;;83.95;28.88;;;;;;;;;;5068726;28;20060;-48
2022/03/28 07:02:54;;;;;;;69.90;26.05;;;;;;;;;;5059955;28;20028;-49
2022/03/28 07:05:20;;;;;;;79.65;26.98;;;;;;;;;;5071065;28;20549;-48
2022/03/28 07:07:50;;;;;;;66.93;24.70;;;;;;;;;;5069339;28;20056;-48
2022/03/28 07:10:19;;;;;;;62.42;23.73;;;;;;;;;;5081358;28;20024;-48
2022/03/28 07:12:45;;;;;;;72.40;27.35;;;;;;;;;;5067373;28;20086;-49
2022/03/28 07:15:12;;;;;;;76.53;27.58;;;;;;;;;;5066737;28;20044;-48
2022/03/28 07:17:54;;;;;;;83.18;30.30;;;;;;;;;;5065744;28;20044;-49
2022/03/28 07:20:22;;;;;;;80.25;30.67;;;;;;;;;;5066696;28;20051;-49
2022/03/28 07:22:48;;;;;;;90.47;30.17;;;;;;;;;;5071232;28;20037;-49
2022/03/28 07:25:13;;;;;;;77.25;30.23;;;;;;;;;;5067387;28;20036;-49
2022/03/28 07:27:40;;;;;;;93.45;34.00;;;;;;;;;;5068060;28;22430;-49
2022/03/28 07:30:07;;;;;;;70.70;29.88;;;;;;;;;;5067105;28;20028;-48
2022/03/28 07:32:34;;;;;;;88.63;29.58;;;;;;;;;;5067643;28;20136;-49
2022/03/28 07:34:59;;;;;;;68.50;27.95;;;;;;;;;;5068644;28;20070;-50
2022/03/28 07:37:26;;;;;;;69.03;27.73;;;;;;;;;;5068656;28;20032;-49
2022/03/28 07:39:51;;;;;;;71.35;27.42;;;;;;;;;;5068054;28;20044;-48
2022/03/28 07:42:17;;;;;;;63.42;25.25;;;;;;;;;;5067959;28;20026;-49
2022/03/28 07:44:43;;;;;;;57.53;22.27;;;;;;;;;;5071311;28;20036;-48
2022/03/28 07:47:08;;;;;;;55.08;26.30;;;;;;;;;;5065823;28;20051;-49
2022/03/28 07:49:38;;;;;;;57.40;23.63;;;;;;;;;;5068795;28;20083;-49
2022/03/28 07:52:06;;;;;;;55.40;22.75;;;;;;;;;;5066198;28;20444;-48
2022/03/28 07:54:32;;;;;;;57.63;22.70;;;;;;;;;;5067919;28;20559;-48
2022/03/28 07:56:58;;;;;;;64.38;23.40;;;;;;;;;;5084092;28;20402;-47
2022/03/28 07:59:24;;;;;;;56.20;22.23;;;;;;;;;;5067206;28;20031;-48
2022/03/28 08:01:51;;;;;;;60.03;23.83;;;;;;;;;;5067548;28;20090;-48
2022/03/28 08:04:19;;;;;;;55.42;23.25;;;;;;;;;;5066567;28;20029;-51
2022/03/28 08:06:45;;;;;;;58.90;24.60;;;;;;;;;;5067672;28;20061;-49
2022/03/28 08:09:10;;;;;;;59.95;23.77;;;;;;;;;;5064242;28;20036;-50
2022/03/28 08:11:36;;;;;;;66.90;23.85;;;;;;;;;;5068052;28;20479;-50
2022/03/28 08:14:03;;;;;;;59.00;22.60;;;;;;;;;;5066343;28;20033;-48
2022/03/28 08:16:29;;;;;;;53.60;22.48;;;;;;;;;;5067357;28;20111;-48
2022/03/28 08:18:55;;;;;;;52.92;23.13;;;;;;;;;;5066949;28;20105;-48
2022/03/28 08:21:21;;;;;;;60.55;23.17;;;;;;;;;;5067626;28;20474;-48
2022/03/28 08:23:46;;;;;;;51.33;21.45;;;;;;;;;;5062314;28;20032;-50
2022/03/28 08:26:12;;;;;;;52.65;21.05;;;;;;;;;;5061429;28;20447;-50
2022/03/28 08:28:37;;;;;;;55.30;22.88;;;;;;;;;;5058735;28;20036;-48
2022/03/28 08:31:03;;;;;;;54.50;22.98;;;;;;;;;;5065898;28;20035;-49
2022/03/28 08:33:28;;;;;;;58.88;22.73;;;;;;;;;;5063972;28;20021;-51
2022/03/28 08:35:54;;;;;;;55.67;23.02;;;;;;;;;;5064235;28;20388;-48
2022/03/28 08:38:21;;;;;;;58.42;23.42;;;;;;;;;;5067833;28;20032;-49
2022/03/28 08:40:48;;;;;;;57.50;22.55;;;;;;;;;;5058104;28;20090;-49
2022/03/28 08:43:18;;;;;;;54.50;22.50;;;;;;;;;;5067353;28;20024;-48
2022/03/28 08:45:44;;;;;;;52.78;21.83;;;;;;;;;;5063327;28;20074;-47
2022/03/28 08:48:13;;;;;;;67.00;23.52;;;;;;;;;;5065461;28;20028;-47
2022/03/28 08:50:49;;;;;;;59.20;23.70;;;;;;;;;;5057207;28;20029;-48
2022/03/28 08:53:16;;;;;;;56.17;22.60;;;;;;;;;;5061188;28;20036;-48
2022/03/28 08:55:43;;;;;;;54.00;22.55;;;;;;;;;;5062944;28;20029;-49
2022/03/28 08:58:10;;;;;;;63.60;22.65;;;;;;;;;;5072970;28;20028;-47
2022/03/28 09:00:36;;;;;;;56.65;23.85;;;;;;;;;;5065480;28;20501;-47
2022/03/28 09:03:02;;;;;;;55.85;20.20;;;;;;;;;;5065787;28;20066;-47
2022/03/28 09:05:31;;;;;;;70.53;22.98;;;;;;;;;;5061040;28;20074;-48
2022/03/28 09:07:58;;;;;;;56.58;22.27;;;;;;;;;;5065773;28;20062;-50
2022/03/28 09:10:24;;;;;;;68.57;22.40;;;;;;;;;;5065577;28;20081;-48
2022/03/28 09:13:08;;;;;;;43.33;19.08;;;;;;;;;;5061078;28;20024;-48
2022/03/28 09:15:45;;;;;;;47.85;19.70;;;;;;;;;;5061551;28;20035;-48
2022/03/28 09:18:21;;;;;;;46.75;18.65;;;;;;;;;;5061850;28;20040;-48
2022/03/28 09:20:49;;;;;;;52.78;18.48;;;;;;;;;;5073460;28;20070;-47
2022/03/28 09:23:30;;;;;;;52.63;19.60;;;;;;;;;;5065902;28;20036;-47
2022/03/28 09:25:56;;;;;;;49.97;18.48;;;;;;;;;;5064844;28;20032;-48
2022/03/28 09:28:39;;;;;;;54.35;19.25;;;;;;;;;;5066025;28;20071;-48
2022/03/28 09:31:26;;;;;;;44.20;16.10;;;;;;;;;;5066025;28;20024;-48
2022/03/28 09:34:10;;;;;;;33.38;14.85;;;;;;;;;;5064708;28;20025;-47
2022/03/28 09:36:37;;;;;;;39.53;16.30;;;;;;;;;;5065818;28;20620;-47
2022/03/28 09:39:12;;;;;;;38.03;13.27;;;;;;;;;;5066236;28;20032;-48
2022/03/28 09:41:37;;;;;;;41.53;13.52;;;;;;;;;;5066580;28;20432;-48
2022/03/28 09:44:03;;;;;;;32.33;12.43;;;;;;;;;;5065654;28;20025;-48
2022/03/28 09:46:31;;;;;;;33.22;13.15;;;;;;;;;;5065876;28;20039;-48
2022/03/28 09:48:59;;;;;;;34.78;12.77;;;;;;;;;;5063755;28;20020;-48
2022/03/28 09:51:30;;;;;;;33.40;11.95;;;;;;;;;;5062877;28;20306;-47
2022/03/28 09:53:57;;;;;;;31.95;12.00;;;;;;;;;;5064163;28;20433;-48
2022/03/28 09:56:23;;;;;;;31.85;11.32;;;;;;;;;;5066579;28;20066;-48
2022/03/28 09:58:58;;;;;;;33.75;13.88;;;;;;;;;;5070549;28;20067;-48
2022/03/28 10:01:39;;;;;;;29.23;12.90;;;;;;;;;;5063605;28;20017;-48
2022/03/28 10:04:10;;;;;;;32.85;11.68;;;;;;;;;;5062818;28;20044;-48
2022/03/28 10:06:37;;;;;;;39.38;13.48;;;;;;;;;;5069663;28;20036;-48
2022/03/28 10:09:04;;;;;;;30.20;12.80;;;;;;;;;;5060686;28;20037;-48
2022/03/28 10:11:31;;;;;;;39.35;12.35;;;;;;;;;;5071205;28;20048;-48
2022/03/28 10:13:57;;;;;;;30.55;11.35;;;;;;;;;;5063943;28;20044;-48
2022/03/28 10:16:23;;;;;;;32.72;13.10;;;;;;;;;;5065826;28;20078;-48
2022/03/28 10:18:50;;;;;;;39.78;12.55;;;;;;;;;;5064534;28;20506;-48
2022/03/28 10:21:30;;;;;;;37.35;13.80;;;;;;;;;;5063361;28;20407;-48
2022/03/28 10:24:03;;;;;;;46.42;12.88;;;;;;;;;;5065752;28;20421;-48
2022/03/28 10:26:35;;;;;;;49.95;13.50;;;;;;;;;;5065965;28;20907;-47
2022/03/28 10:29:13;;;;;;;39.15;14.18;;;;;;;;;;5066374;28;20024;-48
2022/03/28 10:32:06;;;;;;;52.50;15.75;;;;;;;;;;5065621;28;20063;-48
2022/03/28 10:35:01;;;;;;;39.33;13.98;;;;;;;;;;5065286;28;20043;-48
2022/03/28 10:37:41;;;;;;;42.97;16.17;;;;;;;;;;5062180;28;20483;-48
2022/03/28 10:40:16;;;;;;;51.58;18.25;;;;;;;;;;5063379;28;20060;-48
2022/03/28 10:43:06;;;;;;;60.03;18.52;;;;;;;;;;5066749;28;20091;-48
2022/03/28 10:45:37;;;;;;;51.20;18.55;;;;;;;;;;5065211;28;20815;-50
2022/03/28 10:48:07;;;;;;;50.03;17.35;;;;;;;;;;5062158;28;20605;-48
2022/03/28 10:50:45;;;;;;;49.45;18.38;;;;;;;;;;5063041;28;20045;-51
2022/03/28 10:53:26;;;;;;;57.25;18.52;;;;;;;;;;5065345;28;20024;-49
2022/03/28 10:56:06;;;;;;;60.08;20.30;;;;;;;;;;5068401;28;20036;-48
2022/03/28 10:58:43;;;;;;;55.53;19.58;;;;;;;;;;5067171;28;20077;-48
2022/03/28 11:01:09;;;;;;;53.25;20.50;;;;;;;;;;5068940;28;20016;-48
2022/03/28 11:03:47;;;;;;;55.00;20.02;;;;;;;;;;5068707;28;20077;-48
2022/03/28 11:06:14;;;;;;;57.20;21.50;;;;;;;;;;5067207;28;20044;-51
2022/03/28 11:08:48;;;;;;;56.15;20.65;;;;;;;;;;5069076;28;20671;-48
2022/03/28 11:11:22;;;;;;;52.33;22.65;;;;;;;;;;5068774;28;20476;-48
2022/03/28 11:13:59;;;;;;;49.45;20.67;;;;;;;;;;5069303;28;20025;-49
2022/03/28 11:16:50;;;;;;;57.00;19.65;;;;;;;;;;5061877;28;20380;-49
2022/03/28 11:20:03;;;;;;;58.22;20.40;;;;;;;;;;5062223;28;20040;-48
2022/03/28 11:22:50;;;;;;;58.10;19.48;;;;;;;;;;5039223;28;20111;-49
2022/03/28 11:25:38;;;;;;;56.83;18.80;;;;;;;;;;5064239;28;20052;-48
2022/03/28 11:28:05;;;;;;;57.58;21.60;;;;;;;;;;5063833;28;20124;-49
2022/03/28 11:30:31;;;;;;;53.45;20.08;;;;;;;;;;5067061;28;20103;-48
2022/03/28 11:32:58;;;;;;;53.53;22.95;;;;;;;;;;5064890;28;20598;-48
2022/03/28 11:35:23;;;;;;;63.47;21.70;;;;;;;;;;5063268;28;20047;-48
2022/03/28 11:37:50;;;;;;;55.38;22.83;;;;;;;;;;5071306;28;20028;-49
2022/03/28 11:40:15;;;;;;;50.75;21.73;;;;;;;;;;5063380;28;20032;-48
2022/03/28 11:42:45;;;;;;;62.00;21.95;;;;;;;;;;5065575;28;20032;-48
2022/03/28 11:45:12;;;;;;;63.30;22.50;;;;;;;;;;5067906;28;20028;-49
2022/03/28 11:47:40;;;;;;;53.72;21.58;;;;;;;;;;5062958;28;20040;-50
2022/03/28 11:50:08;;;;;;;46.40;20.88;;;;;;;;;;5057699;28;20028;-49
2022/03/28 11:52:35;;;;;;;50.42;21.10;;;;;;;;;;5066887;28;20037;-49
2022/03/28 11:55:02;;;;;;;50.95;21.63;;;;;;;;;;5066185;28;20068;-49
2022/03/28 12:00:19;;;;;;;48.28;20.85;;;;;;;;;;5066093;28;20089;-52
2022/03/28 12:02:55;;;;;;;59.03;21.92;;;;;;;;;;5063611;28;20021;-48
2022/03/28 12:05:31;;;;;;;53.40;21.38;;;;;;;;;;5064935;28;20040;-48
2022/03/28 12:07:57;;;;;;;45.55;20.15;;;;;;;;;;5059542;28;20124;-50
2022/03/28 12:10:32;;;;;;;40.55;19.40;;;;;;;;;;5065471;28;20028;-50
2022/03/28 12:12:59;;;;;;;45.13;20.40;;;;;;;;;;5066943;28;20115;-48
2022/03/28 12:15:34;;;;;;;45.83;19.83;;;;;;;;;;5065235;28;20059;-50
2022/03/28 12:18:05;;;;;;;46.15;19.20;;;;;;;;;;5062858;28;20032;-48
2022/03/28 12:20:36;;;;;;;40.45;17.90;;;;;;;;;;5065512;28;20033;-48
2022/03/28 12:23:04;;;;;;;41.55;18.95;;;;;;;;;;5066125;28;20095;-51
2022/03/28 12:25:39;;;;;;;37.05;18.15;;;;;;;;;;5066125;28;20402;-48
2022/03/28 12:28:10;;;;;;;45.72;18.23;;;;;;;;;;5070516;28;20487;-48
2022/03/28 12:30:44;;;;;;;41.25;18.52;;;;;;;;;;5065292;28;20024;-50
2022/03/28 12:33:11;;;;;;;35.38;17.83;;;;;;;;;;5065721;28;20017;-48
2022/03/28 12:35:48;;;;;;;38.35;18.67;;;;;;;;;;5059901;28;20395;-49
2022/03/28 12:38:23;;;;;;;39.75;18.55;;;;;;;;;;5062785;28;20408;-48
2022/03/28 12:40:54;;;;;;;35.92;17.67;;;;;;;;;;5060895;28;20044;-49
2022/03/28 12:43:23;;;;;;;42.47;18.25;;;;;;;;;;5068518;28;20044;-51
2022/03/28 12:45:52;;;;;;;39.55;17.77;;;;;;;;;;5065815;28;20032;-49
2022/03/28 12:48:18;;;;;;;40.88;18.67;;;;;;;;;;5063505;28;20548;-49
2022/03/28 12:51:11;;;;;;;34.72;18.27;;;;;;;;;;5065184;28;20032;-49
2022/03/28 12:53:38;;;;;;;41.65;18.08;;;;;;;;;;5063474;28;20044;-49
2022/03/28 12:56:18;;;;;;;39.53;18.58;;;;;;;;;;5069419;28;20249;-48
2022/03/28 12:58:59;;;;;;;48.85;17.58;;;;;;;;;;5061205;28;20090;-48
2022/03/28 13:01:32;;;;;;;39.67;18.47;;;;;;;;;;5066354;28;20016;-50
2022/03/28 13:04:11;;;;;;;43.97;17.92;;;;;;;;;;5067268;28;20024;-48
2022/03/28 13:06:42;;;;;;;38.78;16.10;;;;;;;;;;5063931;28;20048;-49
2022/03/28 13:09:08;;;;;;;54.78;17.95;;;;;;;;;;5062060;28;20035;-49
2022/03/28 13:11:34;;;;;;;30.35;15.80;;;;;;;;;;5062610;28;20028;-48
2022/03/28 13:14:01;;;;;;;33.33;16.13;;;;;;;;;;5061338;28;20030;-52
2022/03/28 13:16:30;;;;;;;31.52;16.23;;;;;;;;;;5060332;28;20104;-49
2022/03/28 13:19:06;;;;;;;32.03;16.08;;;;;;;;;;5064700;28;20384;-49
2022/03/28 13:21:33;;;;;;;32.35;17.10;;;;;;;;;;5066116;28;20055;-49
2022/03/28 13:24:06;;;;;;;33.92;16.92;;;;;;;;;;5067208;28;20028;-49
2022/03/28 13:26:46;;;;;;;31.60;16.35;;;;;;;;;;5062630;28;20465;-49
2022/03/28 13:29:15;;;;;;;32.75;17.00;;;;;;;;;;5063621;28;20024;-48
2022/03/28 13:31:41;;;;;;;29.77;16.75;;;;;;;;;;5061467;28;20120;-48
2022/03/28 13:34:06;;;;;;;33.97;17.83;;;;;;;;;;5061277;28;20530;-49
2022/03/28 13:36:32;;;;;;;38.78;18.85;;;;;;;;;;5067148;28;20043;-50
2022/03/28 13:38:57;;;;;;;34.63;16.77;;;;;;;;;;5059509;28;20494;-49
2022/03/28 13:41:23;;;;;;;36.30;17.38;;;;;;;;;;5061273;28;20025;-52
2022/03/28 13:43:48;;;;;;;31.10;17.00;;;;;;;;;;5059765;28;20040;-49
2022/03/28 13:46:17;;;;;;;34.67;17.67;;;;;;;;;;5061177;28;20430;-48
2022/03/28 13:48:42;;;;;;;32.20;17.77;;;;;;;;;;5061613;28;20043;-49
2022/03/28 13:51:08;;;;;;;40.60;18.63;;;;;;;;;;5063168;28;20025;-48
2022/03/28 13:53:35;;;;;;;35.22;17.92;;;;;;;;;;5065480;28;20028;-48
2022/03/28 13:56:01;;;;;;;35.45;18.35;;;;;;;;;;5065908;28;20094;-48
2022/03/28 13:58:28;;;;;;;33.25;17.25;;;;;;;;;;5066179;28;20021;-50
2022/03/28 14:00:55;;;;;;;29.40;15.35;;;;;;;;;;5062191;28;20111;-48
2022/03/28 14:03:21;;;;;;;33.00;16.70;;;;;;;;;;5061695;28;20024;-49
2022/03/28 14:05:51;;;;;;;35.25;18.20;;;;;;;;;;5065382;28;20062;-49
2022/03/28 14:08:17;;;;;;;35.05;16.48;;;;;;;;;;5065895;28;20033;-48
2022/03/28 14:10:42;;;;;;;32.40;17.77;;;;;;;;;;5066882;28;20426;-49
2022/03/28 14:13:08;;;;;;;36.00;19.10;;;;;;;;;;5065737;28;20047;-48
2022/03/28 14:15:35;;;;;;;35.17;18.45;;;;;;;;;;5060998;28;20067;-52
2022/03/28 14:18:00;;;;;;;31.58;17.42;;;;;;;;;;5065149;28;20637;-48
2022/03/28 14:20:26;;;;;;;30.33;17.08;;;;;;;;;;5065228;28;20033;-48
2022/03/28 14:22:52;;;;;;;31.08;17.38;;;;;;;;;;5063340;28;20029;-48
2022/03/28 14:25:18;;;;;;;34.83;17.30;;;;;;;;;;5063292;28;20048;-48
2022/03/28 14:27:43;;;;;;;35.47;18.40;;;;;;;;;;5070056;28;20032;-48
2022/03/28 14:30:15;;;;;;;31.27;18.17;;;;;;;;;;5067903;28;20033;-48
2022/03/28 14:32:41;;;;;;;34.35;19.00;;;;;;;;;;5066363;28;20447;-48